createdAt,value
2023-05-19T00:01:11.646Z,18.33
2023-05-19T00:03:55.841Z,18.18
2023-05-19T00:06:32.742Z,18.13
2023-05-19T00:09:12.083Z,17.98
2023-05-19T00:11:47.305Z,17.94
2023-05-19T00:14:22.004Z,17.91
2023-05-19T00:16:53.857Z,17.91
2023-05-19T00:19:26.855Z,18.00
2023-05-19T00:22:00.135Z,17.91
2023-05-19T00:24:33.182Z,17.86
2023-05-19T00:27:05.640Z,17.83
2023-05-19T00:29:37.318Z,17.80
2023-05-19T00:32:08.522Z,17.80
2023-05-19T00:34:42.057Z,17.70
2023-05-19T00:37:12.780Z,17.65
2023-05-19T00:39:46.591Z,17.66
2023-05-19T00:42:19.507Z,17.63
2023-05-19T00:44:51.208Z,17.62
2023-05-19T00:47:22.366Z,17.55
2023-05-19T00:49:54.152Z,17.55
2023-05-19T00:52:27.467Z,17.59
2023-05-19T00:54:59.505Z,17.57
2023-05-19T00:57:36.456Z,17.57
2023-05-19T01:00:07.558Z,17.52
2023-05-19T01:02:41.414Z,17.49
2023-05-19T01:05:18.177Z,17.49
2023-05-19T01:07:56.359Z,17.42
2023-05-19T01:10:26.747Z,17.33
2023-05-19T01:12:58.330Z,17.28
2023-05-19T01:15:29.461Z,17.21
2023-05-19T01:18:16.709Z,17.28
2023-05-19T01:21:18.187Z,17.29
2023-05-19T01:23:59.372Z,17.19
2023-05-19T01:26:41.858Z,17.14
2023-05-19T01:29:37.437Z,17.16
2023-05-19T01:32:13.384Z,17.12
2023-05-19T01:34:48.420Z,17.14
2023-05-19T01:37:22.612Z,17.10
2023-05-19T01:39:54.757Z,17.02
2023-05-19T01:42:28.900Z,16.96
2023-05-19T01:45:04.138Z,16.87
2023-05-19T01:47:40.705Z,16.82
2023-05-19T01:50:13.746Z,16.74
2023-05-19T01:52:44.248Z,16.71
2023-05-19T01:55:14.402Z,16.61
2023-05-19T01:58:06.564Z,16.63
2023-05-19T02:00:56.098Z,16.74
2023-05-19T02:03:35.251Z,16.68
2023-05-19T02:06:56.855Z,16.71
2023-05-19T02:09:55.998Z,16.61
2023-05-19T02:12:35.041Z,16.54
2023-05-19T02:15:12.825Z,16.51
2023-05-19T02:17:49.769Z,16.40
2023-05-19T02:20:21.402Z,16.36
2023-05-19T02:22:53.378Z,16.40
2023-05-19T02:25:24.842Z,16.29
2023-05-19T02:27:56.891Z,16.20
2023-05-19T02:30:27.937Z,16.19
2023-05-19T02:32:59.263Z,16.17
2023-05-19T02:35:30.721Z,16.23
2023-05-19T02:38:01.538Z,16.24
2023-05-19T02:40:31.972Z,16.19
2023-05-19T02:43:04.319Z,16.09
2023-05-19T02:45:36.706Z,16.06
2023-05-19T02:48:07.360Z,15.98
2023-05-19T02:50:38.649Z,15.90
2023-05-19T02:53:09.647Z,15.90
2023-05-19T02:55:40.863Z,15.90
2023-05-19T02:58:12.555Z,15.82
2023-05-19T03:00:43.540Z,15.78
2023-05-19T03:03:16.728Z,15.75
2023-05-19T03:05:48.569Z,15.62
2023-05-19T03:08:19.980Z,15.59
2023-05-19T03:10:51.241Z,15.56
2023-05-19T03:13:22.398Z,15.56
2023-05-19T03:15:54.750Z,15.54
2023-05-19T03:18:26.838Z,15.45
2023-05-19T03:20:58.692Z,15.49
2023-05-19T03:23:30.790Z,15.39
2023-05-19T03:26:01.082Z,15.32
2023-05-19T03:28:31.012Z,15.28
2023-05-19T03:31:01.544Z,15.30
2023-05-19T03:33:37.680Z,15.28
2023-05-19T03:36:09.477Z,15.31
2023-05-19T03:38:42.523Z,15.34
2023-05-19T03:41:13.800Z,15.32
2023-05-19T03:43:43.897Z,15.34
2023-05-19T03:46:15.147Z,15.35
2023-05-19T03:49:21.566Z,15.31
2023-05-19T03:52:00.960Z,15.31
2023-05-19T03:54:54.237Z,15.21
2023-05-19T03:57:24.673Z,15.12
2023-05-19T03:59:57.859Z,15.07
2023-05-19T04:02:30.292Z,14.98
2023-05-19T04:05:01.379Z,14.95
2023-05-19T04:07:32.253Z,14.93
2023-05-19T04:10:02.563Z,14.87
2023-05-19T04:12:33.837Z,14.87
2023-05-19T04:15:04.995Z,14.87
2023-05-19T04:17:35.793Z,14.80
2023-05-19T04:20:08.358Z,14.74
2023-05-19T04:22:39.538Z,14.67
2023-05-19T04:25:11.039Z,14.63
2023-05-19T04:27:44.817Z,14.62
2023-05-19T04:34:38.936Z,14.57
2023-05-19T04:37:14.208Z,14.52
2023-05-19T04:39:49.154Z,14.50
2023-05-19T04:42:21.107Z,14.44
2023-05-19T04:44:53.855Z,14.44
2023-05-19T04:47:30.221Z,14.42
2023-05-19T04:50:03.699Z,14.42
2023-05-19T04:52:34.121Z,14.47
2023-05-19T04:55:06.725Z,14.42
2023-05-19T04:57:38.963Z,14.42
2023-05-19T05:00:14.973Z,14.36
2023-05-19T05:03:00.365Z,14.29
2023-05-19T05:05:34.519Z,14.23
2023-05-19T05:08:05.279Z,14.25
2023-05-19T05:10:41.226Z,14.18
2023-05-19T05:13:12.906Z,14.16
2023-05-19T05:15:43.285Z,14.19
2023-05-19T05:18:14.119Z,14.15
2023-05-19T05:20:51.007Z,14.06
2023-05-19T05:23:22.347Z,14.05
2023-05-19T05:25:55.142Z,14.09
2023-05-19T05:28:26.455Z,14.06
2023-05-19T05:30:59.677Z,14.09
2023-05-19T05:33:30.950Z,14.04
2023-05-19T05:36:02.658Z,14.05
2023-05-19T05:38:34.240Z,14.04
2023-05-19T05:41:04.915Z,13.99
2023-05-19T05:43:37.137Z,13.98
2023-05-19T05:46:07.858Z,13.92
2023-05-19T05:48:38.580Z,13.95
2023-05-19T05:51:10.802Z,13.89
2023-05-19T05:53:46.912Z,13.91
2023-05-19T05:56:19.543Z,13.89
2023-05-19T05:58:53.765Z,13.88
2023-05-19T06:01:25.383Z,13.83
2023-05-19T06:03:57.969Z,13.82
2023-05-19T06:06:29.049Z,13.85
2023-05-19T06:09:00.187Z,13.79
2023-05-19T06:11:32.051Z,13.68
2023-05-19T06:14:03.800Z,13.71
2023-05-19T06:16:53.213Z,13.71
2023-05-19T06:19:26.510Z,13.65
2023-05-19T06:21:57.046Z,13.58
2023-05-19T06:24:29.695Z,13.57
2023-05-19T06:27:01.068Z,13.62
2023-05-19T06:29:32.360Z,13.65
2023-05-19T06:32:06.910Z,13.72
2023-05-19T06:34:40.354Z,13.71
2023-05-19T06:37:11.450Z,13.72
2023-05-19T06:39:43.385Z,13.74
2023-05-19T06:42:13.616Z,13.83
2023-05-19T06:45:13.032Z,13.77
2023-05-19T06:47:44.700Z,13.79
2023-05-19T06:50:18.158Z,13.75
2023-05-19T06:52:51.480Z,13.75
2023-05-19T06:55:21.905Z,13.78
2023-05-19T06:57:54.303Z,13.71
2023-05-19T07:00:25.354Z,13.67
2023-05-19T07:02:57.407Z,13.57
2023-05-19T07:05:27.735Z,13.58
2023-05-19T07:08:01.564Z,13.55
2023-05-19T07:10:32.585Z,13.57
2023-05-19T07:13:02.914Z,13.46
2023-05-19T07:15:37.208Z,13.30
2023-05-19T07:18:08.911Z,13.38
2023-05-19T07:20:40.094Z,13.37
2023-05-19T07:23:11.292Z,13.46
2023-05-19T07:25:42.024Z,13.53
2023-05-19T07:28:18.203Z,13.60
2023-05-19T07:30:49.553Z,13.58
2023-05-19T07:33:19.914Z,13.50
2023-05-19T07:35:50.437Z,13.51
2023-05-19T07:38:21.692Z,13.41
2023-05-19T07:40:53.004Z,13.40
2023-05-19T07:43:24.550Z,13.38
2023-05-19T07:45:55.855Z,13.38
2023-05-19T07:48:27.300Z,13.31
2023-05-19T07:50:57.774Z,13.33
2023-05-19T07:53:33.136Z,13.28
2023-05-19T07:56:04.094Z,13.21
2023-05-19T07:58:35.050Z,13.03
2023-05-19T08:01:06.146Z,13.10
2023-05-19T08:03:37.326Z,13.06
2023-05-19T08:06:08.525Z,13.04
2023-05-19T08:08:39.612Z,12.95
2023-05-19T08:11:10.282Z,13.04
2023-05-19T08:13:41.327Z,13.07
2023-05-19T08:16:11.722Z,13.02
2023-05-19T08:18:42.577Z,13.02
2023-05-19T08:21:13.186Z,13.07
2023-05-19T08:23:44.540Z,12.97
2023-05-19T08:26:15.748Z,12.99
2023-05-19T08:28:46.595Z,12.95
2023-05-19T08:31:19.728Z,12.90
2023-05-19T08:33:51.179Z,12.93
2023-05-19T08:36:22.273Z,12.90
2023-05-19T08:41:21.112Z,12.86
2023-05-19T08:43:52.547Z,12.89
2023-05-19T08:46:27.011Z,12.85
2023-05-19T08:49:03.870Z,12.85
2023-05-19T08:52:07.552Z,12.86
2023-05-19T08:54:59.077Z,12.89
2023-05-19T08:57:30.979Z,12.85
2023-05-19T09:00:02.782Z,12.85
2023-05-19T09:02:33.427Z,12.83
2023-05-19T09:05:05.177Z,12.77
2023-05-19T09:07:39.695Z,12.70
2023-05-19T09:10:10.941Z,12.72
2023-05-19T09:12:42.215Z,12.76
2023-05-19T09:15:14.616Z,12.80
2023-05-19T09:17:47.058Z,12.73
2023-05-19T09:20:19.872Z,12.70
2023-05-19T09:22:50.275Z,12.65
2023-05-19T09:25:30.526Z,12.59
2023-05-19T09:28:01.482Z,12.60
2023-05-19T09:30:31.585Z,12.57
2023-05-19T09:33:03.128Z,12.59
2023-05-19T09:35:34.308Z,12.55
2023-05-19T09:38:04.849Z,12.57
2023-05-19T09:40:36.663Z,12.55
2023-05-19T09:43:11.355Z,12.62
2023-05-19T09:45:42.762Z,12.65
2023-05-19T09:48:14.877Z,12.60
2023-05-19T09:50:47.062Z,12.65
2023-05-19T09:53:21.275Z,12.65
2023-05-19T09:55:54.167Z,12.63
2023-05-19T09:58:26.413Z,12.59
2023-05-19T10:00:59.129Z,12.63
2023-05-19T10:03:30.480Z,12.60
2023-05-19T10:06:09.749Z,12.63
2023-05-19T10:08:41.025Z,12.65
2023-05-19T10:11:12.831Z,12.63
2023-05-19T10:13:45.563Z,12.69
2023-05-19T10:16:19.055Z,12.67
2023-05-19T10:18:51.651Z,12.66
2023-05-19T10:21:23.144Z,12.69
2023-05-19T10:23:54.154Z,12.73
2023-05-19T10:26:26.909Z,12.72
2023-05-19T10:28:58.177Z,12.89
2023-05-19T10:31:29.541Z,13.20
2023-05-19T10:34:24.295Z,13.98
2023-05-19T10:37:07.100Z,16.20
2023-05-19T10:39:39.099Z,15.17
2023-05-19T10:42:28.104Z,15.25
2023-05-19T10:45:22.382Z,16.95
2023-05-19T10:47:54.650Z,15.37
2023-05-19T10:50:26.287Z,14.84
2023-05-19T10:52:58.357Z,15.03
2023-05-19T10:55:49.324Z,14.81
2023-05-19T10:58:41.854Z,14.62
2023-05-19T11:01:17.239Z,15.24
2023-05-19T11:03:59.517Z,15.20
2023-05-19T11:06:40.897Z,16.95
2023-05-19T11:09:12.346Z,17.02
2023-05-19T11:11:54.994Z,15.89
2023-05-19T11:14:28.768Z,17.36
2023-05-19T11:17:00.652Z,19.49
2023-05-19T11:19:37.359Z,19.08
2023-05-19T11:22:16.409Z,17.85
2023-05-19T11:24:51.429Z,17.38
2023-05-19T11:27:36.041Z,17.35
2023-05-19T11:30:22.112Z,17.43
2023-05-19T11:32:53.526Z,17.63
2023-05-19T11:35:26.503Z,17.83
2023-05-19T11:37:58.018Z,18.00
2023-05-19T11:40:29.698Z,18.23
2023-05-19T11:43:00.920Z,18.47
2023-05-19T11:45:34.800Z,18.79
2023-05-19T11:48:06.464Z,19.13
2023-05-19T11:50:39.518Z,19.46
2023-05-19T11:53:19.171Z,19.71
2023-05-19T11:55:52.029Z,19.91
2023-05-19T11:58:29.237Z,20.18
2023-05-19T12:01:00.324Z,20.32
2023-05-19T12:03:35.319Z,20.53
2023-05-19T12:06:08.734Z,20.65
2023-05-19T12:08:40.938Z,20.83
2023-05-19T12:11:12.182Z,20.83
2023-05-19T12:13:43.913Z,20.95
2023-05-19T12:16:15.034Z,21.07
2023-05-19T12:18:46.133Z,21.27
2023-05-19T12:21:18.311Z,21.20
2023-05-19T12:23:49.619Z,21.44
2023-05-19T12:26:22.258Z,21.67
2023-05-19T12:28:54.982Z,21.80
2023-05-19T12:31:26.183Z,22.00
2023-05-19T12:33:58.725Z,22.11
2023-05-19T12:36:31.847Z,22.05
2023-05-19T12:39:27.146Z,22.33
2023-05-19T12:42:06.224Z,22.35
2023-05-19T12:44:41.765Z,22.57
2023-05-19T12:47:12.582Z,22.84
2023-05-19T12:50:02.880Z,22.96
2023-05-19T12:52:37.496Z,22.96
2023-05-19T12:55:14.637Z,23.06
2023-05-19T12:57:53.830Z,23.14
2023-05-19T13:00:34.739Z,23.13
2023-05-19T13:03:08.405Z,23.23
2023-05-19T13:05:46.028Z,23.45
2023-05-19T13:08:23.137Z,23.43
2023-05-19T13:10:53.585Z,23.53
2023-05-19T13:13:24.426Z,23.59
2023-05-19T13:15:56.161Z,23.84
2023-05-19T13:18:30.471Z,23.78
2023-05-19T13:21:02.885Z,23.96
2023-05-19T13:23:34.498Z,23.99
2023-05-19T13:26:07.783Z,24.09
2023-05-19T13:28:38.930Z,24.09
2023-05-19T13:31:09.674Z,24.13
2023-05-19T13:33:41.622Z,24.08
2023-05-19T13:36:12.416Z,24.10
2023-05-19T13:38:43.676Z,23.94
2023-05-19T13:41:16.244Z,24.05
2023-05-19T13:43:47.833Z,24.19
2023-05-19T13:46:22.165Z,24.29
2023-05-19T13:48:57.760Z,24.22
2023-05-19T13:51:28.565Z,24.32
2023-05-19T13:53:59.741Z,24.40
2023-05-19T13:56:30.635Z,24.25
2023-05-19T13:59:02.883Z,24.33
2023-05-19T14:01:34.924Z,24.39
2023-05-19T14:04:07.146Z,24.41
2023-05-19T14:06:39.302Z,23.90
2023-05-19T14:09:10.949Z,23.88
2023-05-19T14:11:42.014Z,24.08
2023-05-19T14:14:13.243Z,24.09
2023-05-19T14:16:44.597Z,24.41
2023-05-19T14:19:15.555Z,24.63
2023-05-19T14:21:45.950Z,24.63
2023-05-19T14:24:17.130Z,24.35
2023-05-19T14:26:48.490Z,24.29
2023-05-19T14:29:19.843Z,24.56
2023-05-19T14:31:50.393Z,24.74
2023-05-19T14:34:24.043Z,24.77
2023-05-19T14:36:55.805Z,24.61
2023-05-19T14:39:26.785Z,24.71
2023-05-19T14:41:58.617Z,24.79
2023-05-19T14:44:35.080Z,24.90
2023-05-19T14:47:06.720Z,24.90
2023-05-19T14:49:37.038Z,24.63
2023-05-19T14:52:08.670Z,24.63
2023-05-19T14:54:39.840Z,24.84
2023-05-19T14:57:10.680Z,25.00
2023-05-19T14:59:41.162Z,25.32
2023-05-19T15:02:14.055Z,25.35
2023-05-19T15:04:45.445Z,25.27
2023-05-19T15:07:16.650Z,25.32
2023-05-19T15:09:47.651Z,25.45
2023-05-19T15:12:19.133Z,25.48
2023-05-19T15:14:51.247Z,24.97
2023-05-19T15:17:23.649Z,24.61
2023-05-19T15:19:54.761Z,24.76
2023-05-19T15:22:26.258Z,24.86
2023-05-19T15:24:56.755Z,24.95
2023-05-19T15:27:27.665Z,25.06
2023-05-19T15:29:58.810Z,24.95
2023-05-19T15:32:28.975Z,25.17
2023-05-19T15:35:00.675Z,25.28
2023-05-19T15:37:30.952Z,25.42
2023-05-19T15:40:01.955Z,25.18
2023-05-19T15:42:33.217Z,25.00
2023-05-19T15:45:03.709Z,25.24
2023-05-19T15:47:34.627Z,25.25
2023-05-19T15:50:06.499Z,25.18
2023-05-19T15:52:41.536Z,24.90
2023-05-19T15:55:13.789Z,24.67
2023-05-19T15:57:45.356Z,24.77
2023-05-19T16:00:17.107Z,24.86
2023-05-19T16:02:48.227Z,24.69
2023-05-19T16:05:19.147Z,24.67
2023-05-19T16:07:50.440Z,24.33
2023-05-19T16:10:20.902Z,24.55
2023-05-19T16:12:51.204Z,24.70
2023-05-19T16:15:22.029Z,24.64
2023-05-19T16:17:53.322Z,24.39
2023-05-19T16:20:28.890Z,24.26
2023-05-19T16:23:01.331Z,24.71
2023-05-19T16:25:33.063Z,24.49
2023-05-19T16:28:04.589Z,23.89
2023-05-19T16:30:36.367Z,23.72
2023-05-19T16:33:08.698Z,24.23
2023-05-19T16:35:40.315Z,24.28
2023-05-19T16:38:11.221Z,23.88
2023-05-19T16:40:42.170Z,23.81
2023-05-19T16:43:13.825Z,23.79
2023-05-19T16:45:44.089Z,24.06
2023-05-19T16:48:15.185Z,23.82
2023-05-19T16:50:45.541Z,23.41
2023-05-19T16:53:15.592Z,23.64
2023-05-19T16:55:46.568Z,24.35
2023-05-19T16:58:23.812Z,24.36
2023-05-19T17:00:54.574Z,24.22
2023-05-19T17:03:25.241Z,24.18
2023-05-19T17:05:55.898Z,23.75
2023-05-19T17:08:26.295Z,23.90
2023-05-19T17:10:58.025Z,24.22
2023-05-19T17:13:31.652Z,24.28
2023-05-19T17:16:02.514Z,24.10
2023-05-19T17:18:33.128Z,24.30
2023-05-19T17:21:05.297Z,24.16
2023-05-19T17:23:37.507Z,23.86
2023-05-19T17:26:08.897Z,23.45
2023-05-19T17:28:40.385Z,23.03
2023-05-19T17:31:18.606Z,23.40
2023-05-19T17:33:49.825Z,23.54
2023-05-19T17:36:20.740Z,22.87
2023-05-19T17:38:51.192Z,22.97
2023-05-19T17:41:21.395Z,23.37
2023-05-19T17:43:53.003Z,23.59
2023-05-19T17:46:24.272Z,23.62
2023-05-19T17:48:54.790Z,23.64
2023-05-19T17:51:25.992Z,23.62
2023-05-19T17:53:57.898Z,23.59
2023-05-19T17:56:31.681Z,23.59
2023-05-19T17:59:03.689Z,23.43
2023-05-19T18:01:35.706Z,23.15
2023-05-19T18:07:49.902Z,23.23
2023-05-19T18:10:21.628Z,23.61
2023-05-19T18:12:53.422Z,23.50
2023-05-19T18:15:24.603Z,23.51
2023-05-19T18:17:55.782Z,23.47
2023-05-19T18:20:27.852Z,23.74
2023-05-19T18:22:59.189Z,23.75
2023-05-19T18:25:31.401Z,24.01
2023-05-19T18:28:03.194Z,23.90
2023-05-19T18:30:35.554Z,23.90
2023-05-19T18:33:07.317Z,24.22
2023-05-19T18:35:38.542Z,24.23
2023-05-19T18:38:09.894Z,24.23
2023-05-19T18:40:45.117Z,24.23
2023-05-19T18:43:15.736Z,24.13
2023-05-19T18:45:49.630Z,24.01
2023-05-19T18:48:21.157Z,23.86
2023-05-19T18:50:52.196Z,23.55
2023-05-19T18:53:24.967Z,23.48
2023-05-19T18:55:55.983Z,23.43
2023-05-19T18:58:26.637Z,23.68
2023-05-19T19:00:57.724Z,23.67
2023-05-19T19:03:29.057Z,23.69
2023-05-19T19:06:01.595Z,23.75
2023-05-19T19:08:33.020Z,23.65
2023-05-19T19:11:04.110Z,23.62
2023-05-19T19:13:35.335Z,23.61
2023-05-19T19:16:07.650Z,23.65
2023-05-19T19:18:39.043Z,23.57
2023-05-19T19:21:10.659Z,23.48
2023-05-19T19:23:42.211Z,23.45
2023-05-19T19:26:13.138Z,23.47
2023-05-19T19:28:44.991Z,23.27
2023-05-19T19:31:16.079Z,23.24
2023-05-19T19:33:46.749Z,23.20
2023-05-19T19:36:16.975Z,23.17
2023-05-19T19:38:48.520Z,23.02
2023-05-19T19:41:21.885Z,22.93
2023-05-19T19:43:52.548Z,22.92
2023-05-19T19:46:22.807Z,22.84
2023-05-19T19:48:54.636Z,22.83
2023-05-19T19:51:24.991Z,22.83
2023-05-19T19:53:55.661Z,22.67
2023-05-19T19:56:27.721Z,22.59
2023-05-19T19:59:00.767Z,22.49
2023-05-19T20:01:31.220Z,22.48
2023-05-19T20:04:02.959Z,22.38
2023-05-19T20:06:33.729Z,22.29
2023-05-19T20:09:04.831Z,22.18
2023-05-19T20:11:36.163Z,22.22
2023-05-19T20:14:07.257Z,22.09
2023-05-19T20:16:41.656Z,22.00
2023-05-19T20:19:13.333Z,21.94
2023-05-19T20:21:44.164Z,21.82
2023-05-19T20:24:15.390Z,21.75
2023-05-19T20:26:46.038Z,21.68
2023-05-19T20:29:17.153Z,21.61
2023-05-19T20:31:48.779Z,21.57
2023-05-19T20:34:20.139Z,21.51
2023-05-19T20:36:50.769Z,21.43
2023-05-19T20:39:22.032Z,21.38
2023-05-19T20:41:53.552Z,21.27
2023-05-19T20:44:24.166Z,21.19
2023-05-19T20:47:00.033Z,21.11
2023-05-19T20:49:31.839Z,20.99
2023-05-19T20:52:04.228Z,20.89
2023-05-19T20:54:36.117Z,20.72
2023-05-19T20:57:10.449Z,20.65
2023-05-19T20:59:41.694Z,20.58
2023-05-19T21:02:13.173Z,20.49
2023-05-19T21:04:43.905Z,20.48
2023-05-19T21:07:16.053Z,20.51
2023-05-19T21:09:48.863Z,20.51
2023-05-19T21:12:21.926Z,20.38
2023-05-19T21:14:54.090Z,20.31
2023-05-19T21:17:25.177Z,20.22
2023-05-19T21:20:00.417Z,20.13
2023-05-19T21:22:31.757Z,20.01
2023-05-19T21:25:02.383Z,19.95
2023-05-19T21:27:34.440Z,19.85
2023-05-19T21:30:06.372Z,19.81
2023-05-19T21:32:40.794Z,19.73
2023-05-19T21:35:13.090Z,19.66
2023-05-19T21:37:48.352Z,19.56
2023-05-19T21:40:19.006Z,19.49
2023-05-19T21:42:49.638Z,19.45
2023-05-19T21:45:21.329Z,19.47
2023-05-19T21:47:52.121Z,19.37
2023-05-19T21:50:22.694Z,19.34
2023-05-19T21:52:53.848Z,19.23
2023-05-19T21:55:25.116Z,19.23
2023-05-19T21:57:57.219Z,19.13
2023-05-19T22:00:27.816Z,19.05
2023-05-19T22:03:00.423Z,19.02
2023-05-19T22:05:36.885Z,19.03
2023-05-19T22:08:08.009Z,19.05
2023-05-19T22:10:40.815Z,19.09
2023-05-19T22:13:12.015Z,19.05
2023-05-19T22:15:45.390Z,19.02
2023-05-19T22:18:16.250Z,19.02
2023-05-19T22:20:50.611Z,18.98
2023-05-19T22:23:26.501Z,18.79
2023-05-19T22:25:58.646Z,18.73
2023-05-19T22:28:29.451Z,18.73
2023-05-19T22:31:00.070Z,18.81
2023-05-19T22:33:32.092Z,18.85
2023-05-19T22:36:03.701Z,18.84
2023-05-19T22:38:35.856Z,18.65
2023-05-19T22:41:07.744Z,18.55
2023-05-19T22:43:38.998Z,18.64
2023-05-19T22:46:10.756Z,18.62
2023-05-19T22:48:43.625Z,18.65
2023-05-19T22:51:17.583Z,18.59
2023-05-19T22:53:50.408Z,18.64
2023-05-19T22:56:20.692Z,18.51
2023-05-19T22:58:51.264Z,18.51
2023-05-19T23:01:22.567Z,18.51
2023-05-19T23:03:54.247Z,18.44
2023-05-19T23:06:28.185Z,18.41
2023-05-19T23:09:04.338Z,18.21
2023-05-19T23:11:37.843Z,18.24
2023-05-19T23:14:10.324Z,18.04
2023-05-19T23:16:42.703Z,18.06
2023-05-19T23:19:16.360Z,18.10
2023-05-19T23:21:47.883Z,18.10
2023-05-19T23:24:18.718Z,18.03
2023-05-19T23:26:52.416Z,18.06
2023-05-19T23:29:23.305Z,18.03
2023-05-19T23:31:55.526Z,17.94
2023-05-19T23:34:27.898Z,17.79
2023-05-19T23:36:59.023Z,17.75
2023-05-19T23:39:30.154Z,17.69
2023-05-19T23:42:03.997Z,17.67
2023-05-19T23:44:39.520Z,17.61
2023-05-19T23:47:19.814Z,17.57
2023-05-19T23:49:51.308Z,17.61
2023-05-19T23:52:23.716Z,17.56
2023-05-19T23:54:55.633Z,17.57
2023-05-19T23:57:28.681Z,17.59
2023-05-19T23:59:59.316Z,17.66
